Share

Aneta, ND

Grand Forks Air Force Base (KRDR) Elev 912 ft | 47.96 °N, 97.40 °W | Change Station

Current weather conditions updated 27 minutes ago

Clear
Clear
38 °F
Feels Like 34 °F
N
6
Wind Variable Wind from Variable
Sunrise 6:38 AM
Sunset 8:24 PM
Moon Waning Gibbous

Today is forecast to be Warmer than yesterday.

Pressure 30.40 in
Visibility 10.0 miles
Clouds Clear
Windchill 34 °F
Dew Point 7 °F
Humidity 28%
Rainfall 0.00 in
Snow Depth Not available.
UV 8 out of 16
Pollen 8.00 out of 12
Air Quality Not available.
Flu Activity Sporadic
METAR KRDR 171758Z AUTO VRB05KT 10SM CLR 03/M14 A3034 RMK AO2 SLP292 T00331137 10039 21066 58012

More Conditions Fewer Conditions

Pressure 30.40 in
Visibility 10.0 miles
Clouds Clear
Windchill 34 °F
Dew Point 7 °F
Humidity 28%
Rainfall 0.00 in
Snow Depth Not available.
UV 8 out of 16
Pollen 8.00 out of 12
Air Quality Not available.
Flu Activity Sporadic
METAR KRDR 171758Z AUTO VRB05KT 10SM CLR 03/M14 A3034 RMK AO2 SLP292 T00331137 10039 21066 58012

More Conditions Fewer Conditions

10-Day Forecast

Almanac

Astronomy

Apr. 17, 2014 Rise Set
Actual Time 6:38 AM CDT 8:24 PM CDT
Civil Twilight 6:06 AM CDT 8:57 PM CDT
Nautical Twilight 5:26 AM CDT 9:37 PM CDT
Astronomical Twilight 4:42 AM CDT 10:21 PM CDT
Moon 11:21 PM CDT 8:04 AM CDT
Length of Visible Light 14h 51m
Length of Day
13h 45m
Tomorrow will be 3m 17s longer.
Waning Gibbous, 93% of the Moon is Illuminated
Today
Waning Gibbous
Apr 22
Last Quarter
Apr 29
New
May 6
First Quarter
May 14
Full

Today's Extremes

State Highs State Lows

Community

  • New Day
    New Day
  • Lake Michigan Sunrise
    Lake Michigan Sunrise
  • sunset from izmir, narlıdere
    sunset from izmir, narlıdere
  • oregon cherry
    oregon cherry
  • Sunset over the Bay
    Sunset over the Bay

WunderPhotos

Upload Photos

1,702,089 photos uploaded!

Nearby

Snow Depth

Station Depth Elevation
No new snow has been reported.

Coastal Water Temperatures

Place Temperature
No Stations Reporting

Earthquake Activity

City Distance Mag. Time & Date
No recent earthquake activity has been reported nearby.
Minimum magnitude displayed is 2.5.

Nearby Weather Stations

There are no personal weather stations in this area.

What do you think?

We're not finished. Please let us know what you like, what you don't like, and what you are still missing.